sensor_id;sensor_type;location;lat;lon;timestamp;temperature;humidity
13436;DHT22;6790;49.520;8.504;2022-09-28T00:00:38;10.30;99.90
13436;DHT22;6790;49.520;8.504;2022-09-28T00:03:12;10.30;99.90
13436;DHT22;6790;49.520;8.504;2022-09-28T00:05:38;10.30;99.90
13436;DHT22;6790;49.520;8.504;2022-09-28T00:08:03;10.30;99.90
13436;DHT22;6790;49.520;8.504;2022-09-28T00:10:29;10.40;99.90
13436;DHT22;6790;49.520;8.504;2022-09-28T00:12:54;10.30;99.90
13436;DHT22;6790;49.520;8.504;2022-09-28T00:15:21;10.40;99.90
13436;DHT22;6790;49.520;8.504;2022-09-28T00:17:47;10.30;99.90
13436;DHT22;6790;49.520;8.504;2022-09-28T00:20:13;10.30;99.90
13436;DHT22;6790;49.520;8.504;2022-09-28T00:22:39;10.30;99.90
13436;DHT22;6790;49.520;8.504;2022-09-28T00:25:05;10.30;99.90
13436;DHT22;6790;49.520;8.504;2022-09-28T00:27:32;10.30;99.90
13436;DHT22;6790;49.520;8.504;2022-09-28T00:29:57;10.40;99.90
13436;DHT22;6790;49.520;8.504;2022-09-28T00:32:24;10.40;99.90
13436;DHT22;6790;49.520;8.504;2022-09-28T00:34:51;10.40;99.90
13436;DHT22;6790;49.520;8.504;2022-09-28T00:37:17;10.40;99.90
13436;DHT22;6790;49.520;8.504;2022-09-28T00:39:44;10.40;99.90
13436;DHT22;6790;49.520;8.504;2022-09-28T00:42:21;10.30;99.90
13436;DHT22;6790;49.520;8.504;2022-09-28T00:44:52;10.40;99.90
13436;DHT22;6790;49.520;8.504;2022-09-28T00:47:33;10.40;99.90
13436;DHT22;6790;49.520;8.504;2022-09-28T00:50:11;10.30;99.90
13436;DHT22;6790;49.520;8.504;2022-09-28T00:52:49;10.40;99.90
13436;DHT22;6790;49.520;8.504;2022-09-28T00:55:41;10.30;99.90
13436;DHT22;6790;49.520;8.504;2022-09-28T00:58:13;10.40;99.90
13436;DHT22;6790;49.520;8.504;2022-09-28T01:00:42;10.40;99.90
13436;DHT22;6790;49.520;8.504;2022-09-28T01:03:08;10.50;99.90
13436;DHT22;6790;49.520;8.504;2022-09-28T01:05:34;10.40;99.90
13436;DHT22;6790;49.520;8.504;2022-09-28T01:08:02;10.40;99.90
13436;DHT22;6790;49.520;8.504;2022-09-28T01:10:29;10.40;99.90
13436;DHT22;6790;49.520;8.504;2022-09-28T01:12:56;10.40;99.90
13436;DHT22;6790;49.520;8.504;2022-09-28T01:15:25;10.50;99.90
13436;DHT22;6790;49.520;8.504;2022-09-28T01:18:10;10.50;99.90
13436;DHT22;6790;49.520;8.504;2022-09-28T01:23:42;10.50;99.90
13436;DHT22;6790;49.520;8.504;2022-09-28T01:29:44;10.40;99.90
13436;DHT22;6790;49.520;8.504;2022-09-28T01:36:04;10.50;99.90
13436;DHT22;6790;49.520;8.504;2022-09-28T01:38:27;10.60;99.90
13436;DHT22;6790;49.520;8.504;2022-09-28T01:40:57;10.50;99.90
13436;DHT22;6790;49.520;8.504;2022-09-28T01:43:28;10.50;99.90
13436;DHT22;6790;49.520;8.504;2022-09-28T01:46:42;10.60;99.90
13436;DHT22;6790;49.520;8.504;2022-09-28T01:49:04;10.50;99.90
13436;DHT22;6790;49.520;8.504;2022-09-28T01:51:42;10.60;99.90
13436;DHT22;6790;49.520;8.504;2022-09-28T01:54:15;10.60;99.90
13436;DHT22;6790;49.520;8.504;2022-09-28T01:56:49;10.50;99.90
13436;DHT22;6790;49.520;8.504;2022-09-28T01:59:21;10.70;99.90
13436;DHT22;6790;49.520;8.504;2022-09-28T02:02:08;10.60;99.90
13436;DHT22;6790;49.520;8.504;2022-09-28T02:04:44;10.70;99.90
13436;DHT22;6790;49.520;8.504;2022-09-28T02:07:22;10.60;99.90
13436;DHT22;6790;49.520;8.504;2022-09-28T02:10:15;10.70;99.90
13436;DHT22;6790;49.520;8.504;2022-09-28T02:12:53;10.70;99.90
13436;DHT22;6790;49.520;8.504;2022-09-28T02:15:28;10.60;99.90
13436;DHT22;6790;49.520;8.504;2022-09-28T02:17:58;10.50;99.90
13436;DHT22;6790;49.520;8.504;2022-09-28T02:20:25;10.60;99.90
13436;DHT22;6790;49.520;8.504;2022-09-28T02:22:54;10.60;99.90
13436;DHT22;6790;49.520;8.504;2022-09-28T02:25:50;10.50;99.90
13436;DHT22;6790;49.520;8.504;2022-09-28T02:28:18;10.60;99.90
13436;DHT22;6790;49.520;8.504;2022-09-28T02:30:44;10.60;99.90
13436;DHT22;6790;49.520;8.504;2022-09-28T02:33:17;10.70;99.90
13436;DHT22;6790;49.520;8.504;2022-09-28T02:35:45;10.50;99.90
13436;DHT22;6790;49.520;8.504;2022-09-28T02:38:12;10.70;99.90
13436;DHT22;6790;49.520;8.504;2022-09-28T02:40:39;10.70;99.90
13436;DHT22;6790;49.520;8.504;2022-09-28T02:51:37;10.60;99.90
13436;DHT22;6790;49.520;8.504;2022-09-28T03:04:08;10.50;99.90
13436;DHT22;6790;49.520;8.504;2022-09-28T03:06:46;10.70;99.90
13436;DHT22;6790;49.520;8.504;2022-09-28T03:09:24;10.60;99.90
13436;DHT22;6790;49.520;8.504;2022-09-28T03:11:59;10.60;99.90
13436;DHT22;6790;49.520;8.504;2022-09-28T03:14:29;10.70;99.90
13436;DHT22;6790;49.520;8.504;2022-09-28T03:16:55;10.70;99.90
13436;DHT22;6790;49.520;8.504;2022-09-28T03:19:25;10.60;99.90
13436;DHT22;6790;49.520;8.504;2022-09-28T03:21:53;10.60;99.90
13436;DHT22;6790;49.520;8.504;2022-09-28T03:24:20;10.60;99.90
13436;DHT22;6790;49.520;8.504;2022-09-28T03:26:45;10.60;99.90
13436;DHT22;6790;49.520;8.504;2022-09-28T03:29:11;10.60;99.90
13436;DHT22;6790;49.520;8.504;2022-09-28T03:31:37;10.60;99.90
13436;DHT22;6790;49.520;8.504;2022-09-28T03:34:03;10.50;99.90
13436;DHT22;6790;49.520;8.504;2022-09-28T03:36:28;10.50;99.90
13436;DHT22;6790;49.520;8.504;2022-09-28T03:38:54;10.50;99.90
13436;DHT22;6790;49.520;8.504;2022-09-28T03:41:22;10.30;99.90
13436;DHT22;6790;49.520;8.504;2022-09-28T03:43:48;10.50;99.90
13436;DHT22;6790;49.520;8.504;2022-09-28T03:46:13;10.50;99.90
13436;DHT22;6790;49.520;8.504;2022-09-28T03:48:39;10.50;99.90
13436;DHT22;6790;49.520;8.504;2022-09-28T03:51:06;10.40;99.90
13436;DHT22;6790;49.520;8.504;2022-09-28T03:53:35;10.40;99.90
13436;DHT22;6790;49.520;8.504;2022-09-28T03:56:06;10.50;99.90
13436;DHT22;6790;49.520;8.504;2022-09-28T03:58:37;10.50;99.90
13436;DHT22;6790;49.520;8.504;2022-09-28T04:01:06;10.40;99.90
13436;DHT22;6790;49.520;8.504;2022-09-28T04:03:34;10.40;99.90
13436;DHT22;6790;49.520;8.504;2022-09-28T04:05:59;10.50;99.90
13436;DHT22;6790;49.520;8.504;2022-09-28T04:08:26;10.40;99.90
13436;DHT22;6790;49.520;8.504;2022-09-28T04:10:55;10.50;99.90
13436;DHT22;6790;49.520;8.504;2022-09-28T04:13:22;10.50;99.90
13436;DHT22;6790;49.520;8.504;2022-09-28T04:15:52;10.40;99.90
13436;DHT22;6790;49.520;8.504;2022-09-28T04:18:19;10.40;99.90
13436;DHT22;6790;49.520;8.504;2022-09-28T04:20:45;10.40;99.90
13436;DHT22;6790;49.520;8.504;2022-09-28T04:23:13;10.30;99.90
13436;DHT22;6790;49.520;8.504;2022-09-28T04:25:39;10.30;99.90
13436;DHT22;6790;49.520;8.504;2022-09-28T04:28:05;10.40;99.90
13436;DHT22;6790;49.520;8.504;2022-09-28T04:30:50;10.40;99.90
13436;DHT22;6790;49.520;8.504;2022-09-28T04:33:16;10.40;99.90
13436;DHT22;6790;49.520;8.504;2022-09-28T04:35:41;10.40;99.90
13436;DHT22;6790;49.520;8.504;2022-09-28T04:38:07;10.50;99.90
13436;DHT22;6790;49.520;8.504;2022-09-28T04:40:33;10.50;99.90
13436;DHT22;6790;49.520;8.504;2022-09-28T04:42:58;10.50;99.90
13436;DHT22;6790;49.520;8.504;2022-09-28T04:45:24;10.50;99.90
13436;DHT22;6790;49.520;8.504;2022-09-28T04:47:53;10.50;99.90
13436;DHT22;6790;49.520;8.504;2022-09-28T04:50:19;10.50;99.90
13436;DHT22;6790;49.520;8.504;2022-09-28T04:52:44;10.40;99.90
13436;DHT22;6790;49.520;8.504;2022-09-28T04:55:13;10.40;99.90
13436;DHT22;6790;49.520;8.504;2022-09-28T04:57:40;10.40;99.90
13436;DHT22;6790;49.520;8.504;2022-09-28T05:00:06;10.60;99.90
13436;DHT22;6790;49.520;8.504;2022-09-28T05:02:33;10.50;99.90
13436;DHT22;6790;49.520;8.504;2022-09-28T05:04:58;10.50;99.90
13436;DHT22;6790;49.520;8.504;2022-09-28T05:07:25;10.60;99.90
13436;DHT22;6790;49.520;8.504;2022-09-28T05:09:51;10.50;99.90
13436;DHT22;6790;49.520;8.504;2022-09-28T05:12:17;10.50;99.90
13436;DHT22;6790;49.520;8.504;2022-09-28T05:14:43;10.60;99.90
13436;DHT22;6790;49.520;8.504;2022-09-28T05:17:09;10.50;99.90
13436;DHT22;6790;49.520;8.504;2022-09-28T05:19:35;10.40;99.90
13436;DHT22;6790;49.520;8.504;2022-09-28T05:22:01;10.40;99.90
13436;DHT22;6790;49.520;8.504;2022-09-28T05:24:31;10.50;99.90
13436;DHT22;6790;49.520;8.504;2022-09-28T05:26:57;10.40;99.90
13436;DHT22;6790;49.520;8.504;2022-09-28T05:29:22;10.50;99.90
13436;DHT22;6790;49.520;8.504;2022-09-28T05:31:48;10.50;99.90
13436;DHT22;6790;49.520;8.504;2022-09-28T05:34:14;10.50;99.90
13436;DHT22;6790;49.520;8.504;2022-09-28T05:36:39;10.50;99.90
13436;DHT22;6790;49.520;8.504;2022-09-28T05:39:07;10.60;99.90
13436;DHT22;6790;49.520;8.504;2022-09-28T05:41:34;10.50;99.90
13436;DHT22;6790;49.520;8.504;2022-09-28T05:43:59;10.60;99.90
13436;DHT22;6790;49.520;8.504;2022-09-28T05:46:25;10.50;99.90
13436;DHT22;6790;49.520;8.504;2022-09-28T05:48:51;10.50;99.90
13436;DHT22;6790;49.520;8.504;2022-09-28T05:51:17;10.50;99.90
13436;DHT22;6790;49.520;8.504;2022-09-28T05:53:43;10.60;99.90
13436;DHT22;6790;49.520;8.504;2022-09-28T05:56:10;10.60;99.90
13436;DHT22;6790;49.520;8.504;2022-09-28T05:58:35;10.70;99.90
13436;DHT22;6790;49.520;8.504;2022-09-28T06:01:01;10.60;99.90
13436;DHT22;6790;49.520;8.504;2022-09-28T06:03:27;10.60;99.90
13436;DHT22;6790;49.520;8.504;2022-09-28T06:05:53;10.70;99.90
13436;DHT22;6790;49.520;8.504;2022-09-28T06:08:19;10.70;99.90
13436;DHT22;6790;49.520;8.504;2022-09-28T06:10:44;10.60;99.90
13436;DHT22;6790;49.520;8.504;2022-09-28T06:13:10;10.70;99.90
13436;DHT22;6790;49.520;8.504;2022-09-28T06:15:36;10.70;99.90
13436;DHT22;6790;49.520;8.504;2022-09-28T06:18:09;10.70;99.90
13436;DHT22;6790;49.520;8.504;2022-09-28T06:20:39;10.70;99.90
13436;DHT22;6790;49.520;8.504;2022-09-28T06:23:06;10.60;99.90
13436;DHT22;6790;49.520;8.504;2022-09-28T06:25:32;10.50;99.90
13436;DHT22;6790;49.520;8.504;2022-09-28T06:28:01;10.60;99.90
13436;DHT22;6790;49.520;8.504;2022-09-28T06:30:32;10.50;99.90
13436;DHT22;6790;49.520;8.504;2022-09-28T06:33:00;10.60;99.90
13436;DHT22;6790;49.520;8.504;2022-09-28T06:35:28;10.70;99.90
13436;DHT22;6790;49.520;8.504;2022-09-28T06:37:55;10.80;99.90
13436;DHT22;6790;49.520;8.504;2022-09-28T06:40:21;10.90;99.90
13436;DHT22;6790;49.520;8.504;2022-09-28T06:42:58;10.90;99.90
13436;DHT22;6790;49.520;8.504;2022-09-28T06:45:26;10.90;99.90
13436;DHT22;6790;49.520;8.504;2022-09-28T06:47:54;11.00;99.90
13436;DHT22;6790;49.520;8.504;2022-09-28T06:50:23;11.00;99.90
13436;DHT22;6790;49.520;8.504;2022-09-28T06:53:00;11.00;99.90
13436;DHT22;6790;49.520;8.504;2022-09-28T06:55:26;11.00;99.90
13436;DHT22;6790;49.520;8.504;2022-09-28T06:58:00;10.90;99.90
13436;DHT22;6790;49.520;8.504;2022-09-28T07:00:29;10.90;99.90
13436;DHT22;6790;49.520;8.504;2022-09-28T07:02:58;10.80;99.90
13436;DHT22;6790;49.520;8.504;2022-09-28T07:05:28;10.80;99.90
13436;DHT22;6790;49.520;8.504;2022-09-28T07:07:55;10.80;99.90
13436;DHT22;6790;49.520;8.504;2022-09-28T07:10:25;10.80;99.90
13436;DHT22;6790;49.520;8.504;2022-09-28T07:12:53;10.90;99.90
13436;DHT22;6790;49.520;8.504;2022-09-28T07:15:20;11.00;99.90
13436;DHT22;6790;49.520;8.504;2022-09-28T07:17:46;11.00;99.90
13436;DHT22;6790;49.520;8.504;2022-09-28T07:20:12;11.10;99.90
13436;DHT22;6790;49.520;8.504;2022-09-28T07:22:38;11.10;99.90
13436;DHT22;6790;49.520;8.504;2022-09-28T07:25:08;11.20;99.90
13436;DHT22;6790;49.520;8.504;2022-09-28T07:27:34;11.20;99.90
13436;DHT22;6790;49.520;8.504;2022-09-28T07:30:05;11.20;99.90
13436;DHT22;6790;49.520;8.504;2022-09-28T07:32:31;11.20;99.90
13436;DHT22;6790;49.520;8.504;2022-09-28T07:34:59;11.20;99.90
13436;DHT22;6790;49.520;8.504;2022-09-28T07:37:29;11.10;99.90
13436;DHT22;6790;49.520;8.504;2022-09-28T07:39:55;11.10;99.90
13436;DHT22;6790;49.520;8.504;2022-09-28T07:42:39;11.30;99.90
13436;DHT22;6790;49.520;8.504;2022-09-28T07:45:05;11.30;99.90
13436;DHT22;6790;49.520;8.504;2022-09-28T07:47:31;11.40;99.90
13436;DHT22;6790;49.520;8.504;2022-09-28T07:49:58;11.40;99.90
13436;DHT22;6790;49.520;8.504;2022-09-28T07:52:24;11.40;99.90
13436;DHT22;6790;49.520;8.504;2022-09-28T07:55:00;11.40;99.90
13436;DHT22;6790;49.520;8.504;2022-09-28T07:57:27;11.50;99.90
13436;DHT22;6790;49.520;8.504;2022-09-28T07:59:53;11.60;99.90
13436;DHT22;6790;49.520;8.504;2022-09-28T08:02:21;11.90;99.90
13436;DHT22;6790;49.520;8.504;2022-09-28T08:04:47;12.10;99.90
13436;DHT22;6790;49.520;8.504;2022-09-28T08:07:15;12.00;99.90
13436;DHT22;6790;49.520;8.504;2022-09-28T08:09:42;12.00;99.90
13436;DHT22;6790;49.520;8.504;2022-09-28T08:12:10;12.10;99.90
13436;DHT22;6790;49.520;8.504;2022-09-28T08:14:36;12.00;99.90
13436;DHT22;6790;49.520;8.504;2022-09-28T08:17:04;12.10;99.90
13436;DHT22;6790;49.520;8.504;2022-09-28T08:19:30;12.10;99.90
13436;DHT22;6790;49.520;8.504;2022-09-28T08:22:18;12.30;99.90
13436;DHT22;6790;49.520;8.504;2022-09-28T08:24:45;12.20;99.90
13436;DHT22;6790;49.520;8.504;2022-09-28T08:27:12;12.00;99.90
13436;DHT22;6790;49.520;8.504;2022-09-28T08:29:38;11.80;99.90
13436;DHT22;6790;49.520;8.504;2022-09-28T08:32:05;11.60;99.90
13436;DHT22;6790;49.520;8.504;2022-09-28T08:34:35;11.70;99.90
13436;DHT22;6790;49.520;8.504;2022-09-28T08:37:02;11.70;99.90
13436;DHT22;6790;49.520;8.504;2022-09-28T08:39:28;11.80;99.90
13436;DHT22;6790;49.520;8.504;2022-09-28T08:44:38;12.10;99.90
13436;DHT22;6790;49.520;8.504;2022-09-28T08:47:12;12.20;99.90
13436;DHT22;6790;49.520;8.504;2022-09-28T08:50:01;12.40;99.90
13436;DHT22;6790;49.520;8.504;2022-09-28T08:52:33;12.20;99.90
13436;DHT22;6790;49.520;8.504;2022-09-28T08:55:15;12.20;99.90
13436;DHT22;6790;49.520;8.504;2022-09-28T08:58:04;12.00;99.90
13436;DHT22;6790;49.520;8.504;2022-09-28T09:00:45;12.20;99.90
13436;DHT22;6790;49.520;8.504;2022-09-28T09:17:52;12.20;99.90
13436;DHT22;6790;49.520;8.504;2022-09-28T09:20:56;12.10;99.90
13436;DHT22;6790;49.520;8.504;2022-09-28T09:23:41;12.60;99.90
13436;DHT22;6790;49.520;8.504;2022-09-28T09:26:14;13.10;99.90
13436;DHT22;6790;49.520;8.504;2022-09-28T09:29:02;13.30;99.90
13436;DHT22;6790;49.520;8.504;2022-09-28T09:31:46;13.10;99.90
13436;DHT22;6790;49.520;8.504;2022-09-28T09:49:09;13.90;99.90
13436;DHT22;6790;49.520;8.504;2022-09-28T09:52:09;13.60;99.90
13436;DHT22;6790;49.520;8.504;2022-09-28T09:55:02;13.20;99.90
13436;DHT22;6790;49.520;8.504;2022-09-28T09:57:43;12.90;99.90
13436;DHT22;6790;49.520;8.504;2022-09-28T10:00:16;12.60;99.90
13436;DHT22;6790;49.520;8.504;2022-09-28T10:02:44;12.40;99.90
13436;DHT22;6790;49.520;8.504;2022-09-28T10:10:25;13.00;99.90
13436;DHT22;6790;49.520;8.504;2022-09-28T10:12:53;13.00;99.90
13436;DHT22;6790;49.520;8.504;2022-09-28T10:15:30;12.90;99.90
13436;DHT22;6790;49.520;8.504;2022-09-28T10:18:05;12.90;99.90
13436;DHT22;6790;49.520;8.504;2022-09-28T10:20:37;13.30;99.90
13436;DHT22;6790;49.520;8.504;2022-09-28T10:23:09;13.60;99.90
13436;DHT22;6790;49.520;8.504;2022-09-28T10:25:42;13.50;99.90
13436;DHT22;6790;49.520;8.504;2022-09-28T10:28:17;13.80;99.90
13436;DHT22;6790;49.520;8.504;2022-09-28T10:30:45;14.10;99.90
13436;DHT22;6790;49.520;8.504;2022-09-28T10:33:29;14.40;99.90
13436;DHT22;6790;49.520;8.504;2022-09-28T10:35:59;14.50;99.90
13436;DHT22;6790;49.520;8.504;2022-09-28T10:38:25;14.50;99.90
13436;DHT22;6790;49.520;8.504;2022-09-28T10:40:53;14.60;99.90
13436;DHT22;6790;49.520;8.504;2022-09-28T10:43:25;14.60;99.90
13436;DHT22;6790;49.520;8.504;2022-09-28T10:46:00;14.40;99.90
13436;DHT22;6790;49.520;8.504;2022-09-28T10:51:42;14.50;99.90
13436;DHT22;6790;49.520;8.504;2022-09-28T10:54:16;14.90;99.90
13436;DHT22;6790;49.520;8.504;2022-09-28T10:56:47;14.80;99.90
13436;DHT22;6790;49.520;8.504;2022-09-28T11:02:01;14.20;99.90
13436;DHT22;6790;49.520;8.504;2022-09-28T11:04:39;14.00;99.90
13436;DHT22;6790;49.520;8.504;2022-09-28T11:07:19;13.80;99.90
13436;DHT22;6790;49.520;8.504;2022-09-28T11:10:19;13.60;99.90
13436;DHT22;6790;49.520;8.504;2022-09-28T11:12:48;13.40;99.90
13436;DHT22;6790;49.520;8.504;2022-09-28T11:15:25;13.30;99.90
13436;DHT22;6790;49.520;8.504;2022-09-28T11:17:53;13.20;99.90
13436;DHT22;6790;49.520;8.504;2022-09-28T11:25:26;12.80;99.90
13436;DHT22;6790;49.520;8.504;2022-09-28T11:33:34;12.80;99.90
13436;DHT22;6790;49.520;8.504;2022-09-28T11:36:15;12.80;99.90
13436;DHT22;6790;49.520;8.504;2022-09-28T11:39:03;12.80;99.90
13436;DHT22;6790;49.520;8.504;2022-09-28T11:42:06;12.80;99.90
13436;DHT22;6790;49.520;8.504;2022-09-28T11:47:44;12.90;99.90
13436;DHT22;6790;49.520;8.504;2022-09-28T11:53:15;13.60;99.90
13436;DHT22;6790;49.520;8.504;2022-09-28T11:55:53;13.90;99.90
13436;DHT22;6790;49.520;8.504;2022-09-28T11:58:26;14.10;99.90
13436;DHT22;6790;49.520;8.504;2022-09-28T12:01:11;14.60;99.90
13436;DHT22;6790;49.520;8.504;2022-09-28T12:03:49;14.90;99.90
13436;DHT22;6790;49.520;8.504;2022-09-28T12:06:19;14.80;99.90
13436;DHT22;6790;49.520;8.504;2022-09-28T12:08:52;14.60;99.90
13436;DHT22;6790;49.520;8.504;2022-09-28T12:11:26;14.30;99.90
13436;DHT22;6790;49.520;8.504;2022-09-28T12:13:57;14.10;99.90
13436;DHT22;6790;49.520;8.504;2022-09-28T12:16:42;14.00;99.90
13436;DHT22;6790;49.520;8.504;2022-09-28T12:19:32;14.00;99.90
13436;DHT22;6790;49.520;8.504;2022-09-28T12:22:19;13.90;99.90
13436;DHT22;6790;49.520;8.504;2022-09-28T12:24:50;13.80;99.90
13436;DHT22;6790;49.520;8.504;2022-09-28T12:27:41;13.70;99.90
13436;DHT22;6790;49.520;8.504;2022-09-28T12:30:21;13.80;99.90
13436;DHT22;6790;49.520;8.504;2022-09-28T12:48:03;14.00;99.90
13436;DHT22;6790;49.520;8.504;2022-09-28T12:53:59;14.10;99.90
13436;DHT22;6790;49.520;8.504;2022-09-28T12:59:28;14.10;99.90
13436;DHT22;6790;49.520;8.504;2022-09-28T13:07:54;14.20;99.90
13436;DHT22;6790;49.520;8.504;2022-09-28T13:10:39;14.20;99.90
13436;DHT22;6790;49.520;8.504;2022-09-28T13:13:40;14.30;99.90
13436;DHT22;6790;49.520;8.504;2022-09-28T13:19:43;14.20;99.90
13436;DHT22;6790;49.520;8.504;2022-09-28T13:22:38;14.10;99.90
13436;DHT22;6790;49.520;8.504;2022-09-28T13:25:17;14.10;99.90
13436;DHT22;6790;49.520;8.504;2022-09-28T13:27:54;14.00;99.90
13436;DHT22;6790;49.520;8.504;2022-09-28T13:30:22;14.00;99.90
13436;DHT22;6790;49.520;8.504;2022-09-28T13:32:50;14.20;99.90
13436;DHT22;6790;49.520;8.504;2022-09-28T13:35:17;14.50;99.90
13436;DHT22;6790;49.520;8.504;2022-09-28T13:37:46;14.50;99.90
13436;DHT22;6790;49.520;8.504;2022-09-28T13:40:13;14.50;99.90
13436;DHT22;6790;49.520;8.504;2022-09-28T13:51:05;14.20;99.90
13436;DHT22;6790;49.520;8.504;2022-09-28T14:02:27;14.10;99.90
13436;DHT22;6790;49.520;8.504;2022-09-28T14:10:20;14.20;99.90
13436;DHT22;6790;49.520;8.504;2022-09-28T14:12:50;14.20;99.90
13436;DHT22;6790;49.520;8.504;2022-09-28T14:18:18;14.30;99.90
13436;DHT22;6790;49.520;8.504;2022-09-28T14:27:11;14.20;99.90
13436;DHT22;6790;49.520;8.504;2022-09-28T14:29:54;14.20;99.90
13436;DHT22;6790;49.520;8.504;2022-09-28T14:32:33;14.10;99.90
13436;DHT22;6790;49.520;8.504;2022-09-28T14:35:03;14.00;99.90
13436;DHT22;6790;49.520;8.504;2022-09-28T14:37:36;13.90;99.90
13436;DHT22;6790;49.520;8.504;2022-09-28T14:40:31;13.90;99.90
13436;DHT22;6790;49.520;8.504;2022-09-28T14:56:40;14.00;99.90
13436;DHT22;6790;49.520;8.504;2022-09-28T14:59:29;14.00;99.90
13436;DHT22;6790;49.520;8.504;2022-09-28T15:04:42;14.10;99.90
13436;DHT22;6790;49.520;8.504;2022-09-28T15:07:25;14.10;99.90
13436;DHT22;6790;49.520;8.504;2022-09-28T15:09:58;14.20;99.90
13436;DHT22;6790;49.520;8.504;2022-09-28T15:12:31;14.20;99.90
13436;DHT22;6790;49.520;8.504;2022-09-28T15:15:02;14.10;99.90
13436;DHT22;6790;49.520;8.504;2022-09-28T15:17:33;14.10;99.90
13436;DHT22;6790;49.520;8.504;2022-09-28T15:20:25;14.00;99.90
13436;DHT22;6790;49.520;8.504;2022-09-28T15:22:57;13.90;99.90
13436;DHT22;6790;49.520;8.504;2022-09-28T15:25:29;14.00;99.90
13436;DHT22;6790;49.520;8.504;2022-09-28T15:27:58;13.90;99.90
13436;DHT22;6790;49.520;8.504;2022-09-28T15:30:31;13.90;99.90
13436;DHT22;6790;49.520;8.504;2022-09-28T15:33:00;13.80;99.90
13436;DHT22;6790;49.520;8.504;2022-09-28T15:36:05;13.80;99.90
13436;DHT22;6790;49.520;8.504;2022-09-28T15:38:32;13.80;99.90
13436;DHT22;6790;49.520;8.504;2022-09-28T15:41:02;13.70;99.90
13436;DHT22;6790;49.520;8.504;2022-09-28T15:43:31;13.70;99.90
13436;DHT22;6790;49.520;8.504;2022-09-28T15:46:12;13.70;99.90
13436;DHT22;6790;49.520;8.504;2022-09-28T15:51:18;13.90;99.90
13436;DHT22;6790;49.520;8.504;2022-09-28T15:54:07;13.90;99.90
13436;DHT22;6790;49.520;8.504;2022-09-28T15:56:55;13.80;99.90
13436;DHT22;6790;49.520;8.504;2022-09-28T15:59:34;13.70;99.90
13436;DHT22;6790;49.520;8.504;2022-09-28T16:02:14;13.70;99.90
13436;DHT22;6790;49.520;8.504;2022-09-28T16:12:19;13.50;99.90
13436;DHT22;6790;49.520;8.504;2022-09-28T16:14:50;13.40;99.90
13436;DHT22;6790;49.520;8.504;2022-09-28T16:17:28;13.30;99.90
13436;DHT22;6790;49.520;8.504;2022-09-28T16:20:19;13.10;99.90
13436;DHT22;6790;49.520;8.504;2022-09-28T16:22:55;13.00;99.90
13436;DHT22;6790;49.520;8.504;2022-09-28T16:25:24;13.00;99.90
13436;DHT22;6790;49.520;8.504;2022-09-28T16:27:52;12.90;99.90
13436;DHT22;6790;49.520;8.504;2022-09-28T16:30:28;12.90;99.90
13436;DHT22;6790;49.520;8.504;2022-09-28T16:33:02;12.90;99.90
13436;DHT22;6790;49.520;8.504;2022-09-28T16:35:50;12.90;99.90
13436;DHT22;6790;49.520;8.504;2022-09-28T16:38:17;12.80;99.90
13436;DHT22;6790;49.520;8.504;2022-09-28T16:40:48;12.80;99.90
13436;DHT22;6790;49.520;8.504;2022-09-28T16:43:22;12.70;99.90
13436;DHT22;6790;49.520;8.504;2022-09-28T16:48:47;12.50;99.90
13436;DHT22;6790;49.520;8.504;2022-09-28T16:51:18;12.50;99.90
13436;DHT22;6790;49.520;8.504;2022-09-28T16:53:44;12.40;99.90
13436;DHT22;6790;49.520;8.504;2022-09-28T16:56:31;12.40;99.90
13436;DHT22;6790;49.520;8.504;2022-09-28T16:58:57;12.40;99.90
13436;DHT22;6790;49.520;8.504;2022-09-28T17:01:24;12.30;99.90
13436;DHT22;6790;49.520;8.504;2022-09-28T17:03:50;12.20;99.90
13436;DHT22;6790;49.520;8.504;2022-09-28T17:06:17;12.10;99.90
13436;DHT22;6790;49.520;8.504;2022-09-28T17:08:44;12.10;99.90
13436;DHT22;6790;49.520;8.504;2022-09-28T17:11:15;12.10;99.90
13436;DHT22;6790;49.520;8.504;2022-09-28T17:13:43;12.10;99.90
13436;DHT22;6790;49.520;8.504;2022-09-28T17:16:15;11.90;99.90
13436;DHT22;6790;49.520;8.504;2022-09-28T17:18:43;12.00;99.90
13436;DHT22;6790;49.520;8.504;2022-09-28T17:21:15;11.90;99.90
13436;DHT22;6790;49.520;8.504;2022-09-28T17:23:43;11.70;99.90
13436;DHT22;6790;49.520;8.504;2022-09-28T17:26:25;11.70;99.90
13436;DHT22;6790;49.520;8.504;2022-09-28T17:28:55;11.70;99.90
13436;DHT22;6790;49.520;8.504;2022-09-28T17:31:26;11.70;99.90
13436;DHT22;6790;49.520;8.504;2022-09-28T17:33:52;11.70;99.90
13436;DHT22;6790;49.520;8.504;2022-09-28T17:36:19;11.70;99.90
13436;DHT22;6790;49.520;8.504;2022-09-28T17:38:46;11.80;99.90
13436;DHT22;6790;49.520;8.504;2022-09-28T17:41:15;11.90;99.90
13436;DHT22;6790;49.520;8.504;2022-09-28T17:43:41;11.90;99.90
13436;DHT22;6790;49.520;8.504;2022-09-28T17:46:26;11.80;99.90
13436;DHT22;6790;49.520;8.504;2022-09-28T17:48:54;11.70;99.90
13436;DHT22;6790;49.520;8.504;2022-09-28T17:51:22;11.60;99.90
13436;DHT22;6790;49.520;8.504;2022-09-28T17:53:48;11.40;99.90
13436;DHT22;6790;49.520;8.504;2022-09-28T17:56:14;11.30;99.90
13436;DHT22;6790;49.520;8.504;2022-09-28T17:58:39;11.20;99.90
13436;DHT22;6790;49.520;8.504;2022-09-28T18:01:05;11.10;99.90
13436;DHT22;6790;49.520;8.504;2022-09-28T18:03:31;11.00;99.90
13436;DHT22;6790;49.520;8.504;2022-09-28T18:06:04;11.00;99.90
13436;DHT22;6790;49.520;8.504;2022-09-28T18:08:32;10.90;99.90
13436;DHT22;6790;49.520;8.504;2022-09-28T18:10:58;10.90;99.90
13436;DHT22;6790;49.520;8.504;2022-09-28T18:13:26;10.90;99.90
13436;DHT22;6790;49.520;8.504;2022-09-28T18:15:53;10.80;99.90
13436;DHT22;6790;49.520;8.504;2022-09-28T18:18:21;10.80;99.90
13436;DHT22;6790;49.520;8.504;2022-09-28T18:20:47;10.80;99.90
13436;DHT22;6790;49.520;8.504;2022-09-28T18:23:13;10.80;99.90
13436;DHT22;6790;49.520;8.504;2022-09-28T18:25:43;10.80;99.90
13436;DHT22;6790;49.520;8.504;2022-09-28T18:28:13;10.60;99.90
13436;DHT22;6790;49.520;8.504;2022-09-28T18:30:40;10.60;99.90
13436;DHT22;6790;49.520;8.504;2022-09-28T18:33:08;10.60;99.90
13436;DHT22;6790;49.520;8.504;2022-09-28T18:35:34;10.50;99.90
13436;DHT22;6790;49.520;8.504;2022-09-28T18:38:01;10.50;99.90
13436;DHT22;6790;49.520;8.504;2022-09-28T18:40:30;10.50;99.90
13436;DHT22;6790;49.520;8.504;2022-09-28T18:42:57;10.50;99.90
13436;DHT22;6790;49.520;8.504;2022-09-28T18:45:22;10.60;99.90
13436;DHT22;6790;49.520;8.504;2022-09-28T18:47:48;10.60;99.90
13436;DHT22;6790;49.520;8.504;2022-09-28T18:50:14;10.50;99.90
13436;DHT22;6790;49.520;8.504;2022-09-28T18:52:41;10.50;99.90
13436;DHT22;6790;49.520;8.504;2022-09-28T18:55:08;10.50;99.90
13436;DHT22;6790;49.520;8.504;2022-09-28T18:57:36;10.40;99.90
13436;DHT22;6790;49.520;8.504;2022-09-28T19:00:06;10.40;99.90
13436;DHT22;6790;49.520;8.504;2022-09-28T19:02:34;10.40;99.90
13436;DHT22;6790;49.520;8.504;2022-09-28T19:05:00;10.30;99.90
13436;DHT22;6790;49.520;8.504;2022-09-28T19:07:26;10.30;99.90
13436;DHT22;6790;49.520;8.504;2022-09-28T19:09:51;10.30;99.90
13436;DHT22;6790;49.520;8.504;2022-09-28T19:12:18;10.30;99.90